createdAt,value
2023-02-08T00:01:07.872Z,0.32
2023-02-08T00:03:35.675Z,0.36
2023-02-08T00:06:03.490Z,0.30
2023-02-08T00:08:31.968Z,0.30
2023-02-08T00:10:59.614Z,0.25
2023-02-08T00:13:28.623Z,0.23
2023-02-08T00:15:56.494Z,0.21
2023-02-08T00:18:24.668Z,0.26
2023-02-08T00:20:52.787Z,0.29
2023-02-08T00:23:20.516Z,0.28
2023-02-08T00:25:48.106Z,0.23
2023-02-08T00:28:17.808Z,0.22
2023-02-08T00:30:47.043Z,0.25
2023-02-08T00:33:14.764Z,0.30
2023-02-08T00:35:42.518Z,0.35
2023-02-08T00:38:10.142Z,0.29
2023-02-08T00:40:38.325Z,0.25
2023-02-08T00:43:06.850Z,0.24
2023-02-08T00:45:34.899Z,0.23
2023-02-08T00:48:03.908Z,0.15
2023-02-08T00:50:31.526Z,0.15
2023-02-08T00:52:59.473Z,0.14
2023-02-08T00:55:27.088Z,0.15
2023-02-08T00:57:57.051Z,0.10
2023-02-08T01:00:24.676Z,0.02
2023-02-08T01:02:52.231Z,0.03
2023-02-08T01:05:23.690Z,0.03
2023-02-08T01:07:51.267Z,-0.02
2023-02-08T01:10:19.125Z,0.02
2023-02-08T01:12:46.769Z,0.03
2023-02-08T01:15:14.323Z,0.08
2023-02-08T01:17:42.076Z,0.22
2023-02-08T01:20:10.917Z,0.27
2023-02-08T01:22:39.782Z,0.31
2023-02-08T01:25:07.338Z,0.29
2023-02-08T01:27:34.940Z,0.22
2023-02-08T01:30:02.567Z,0.23
2023-02-08T01:32:30.154Z,0.12
2023-02-08T01:34:57.778Z,0.03
2023-02-08T01:37:25.424Z,-0.04
2023-02-08T01:39:54.339Z,-0.19
2023-02-08T01:42:22.236Z,-0.25
2023-02-08T01:45:23.374Z,-0.21
2023-02-08T01:47:54.905Z,-0.28
2023-02-08T01:50:25.077Z,-0.33
2023-02-08T01:52:52.876Z,-0.32
2023-02-08T01:55:24.697Z,-0.51
2023-02-08T01:57:57.552Z,-0.41
2023-02-08T02:00:25.617Z,-0.33
2023-02-08T02:02:56.323Z,-0.34
2023-02-08T02:05:27.294Z,-0.21
2023-02-08T02:07:56.662Z,-0.23
2023-02-08T02:10:27.760Z,-0.28
2023-02-08T02:12:58.010Z,-0.32
2023-02-08T02:15:25.693Z,-0.30
2023-02-08T02:17:53.340Z,-0.34
2023-02-08T02:20:30.755Z,-0.28
2023-02-08T02:23:40.589Z,-0.26
2023-02-08T02:26:42.115Z,-0.27
2023-02-08T02:29:28.125Z,-0.25
2023-02-08T02:32:26.706Z,-0.24
2023-02-08T02:35:03.625Z,-0.24
2023-02-08T02:37:49.072Z,-0.34
2023-02-08T02:40:26.172Z,-0.43
2023-02-08T02:43:24.056Z,-0.34
2023-02-08T02:46:01.513Z,-0.36
2023-02-08T02:48:39.499Z,-0.34
2023-02-08T02:51:10.844Z,-0.33
2023-02-08T02:53:45.608Z,-0.39
2023-02-08T02:56:16.405Z,-0.44
2023-02-08T02:58:45.369Z,-0.48
2023-02-08T03:01:13.808Z,-0.51
2023-02-08T03:03:42.750Z,-0.53
2023-02-08T03:06:15.654Z,-0.46
2023-02-08T03:08:56.577Z,-0.47
2023-02-08T03:11:27.394Z,-0.40
2023-02-08T03:14:05.807Z,-0.44
2023-02-08T03:16:45.597Z,-0.45
2023-02-08T03:19:23.461Z,-0.44
2023-02-08T03:21:58.272Z,-0.43
2023-02-08T03:24:30.872Z,-0.42
2023-02-08T03:27:03.947Z,-0.44
2023-02-08T03:29:45.026Z,-0.49
2023-02-08T03:32:18.429Z,-0.44
2023-02-08T03:34:55.163Z,-0.44
2023-02-08T03:37:27.142Z,-0.41
2023-02-08T03:39:59.838Z,-0.43
2023-02-08T03:42:29.102Z,-0.47
2023-02-08T03:45:00.439Z,-0.51
2023-02-08T03:47:31.376Z,-0.57
2023-02-08T03:50:05.852Z,-0.52
2023-02-08T03:52:33.979Z,-0.48
2023-02-08T03:55:05.321Z,-0.45
2023-02-08T03:57:38.795Z,-0.45
2023-02-08T04:00:12.256Z,-0.43
2023-02-08T04:02:44.979Z,-0.40
2023-02-08T04:05:14.653Z,-0.30
2023-02-08T04:07:42.786Z,-0.26
2023-02-08T04:10:10.679Z,-0.32
2023-02-08T04:12:38.497Z,-0.47
2023-02-08T04:15:06.800Z,-0.57
2023-02-08T04:17:34.502Z,-0.47
2023-02-08T04:20:02.136Z,-0.47
2023-02-08T04:22:31.129Z,-0.44
2023-02-08T04:24:59.753Z,-0.36
2023-02-08T04:27:27.510Z,-0.41
2023-02-08T04:29:55.199Z,-0.38
2023-02-08T04:32:23.331Z,-0.36
2023-02-08T04:34:52.105Z,-0.40
2023-02-08T04:37:19.756Z,-0.36
2023-02-08T04:39:48.816Z,-0.42
2023-02-08T04:42:16.859Z,-0.47
2023-02-08T04:44:44.524Z,-0.46
2023-02-08T04:47:12.224Z,-0.56
2023-02-08T04:49:39.939Z,-0.53
2023-02-08T04:52:08.004Z,-0.48
2023-02-08T04:54:35.689Z,-0.51
2023-02-08T04:57:04.852Z,-0.59
2023-02-08T04:59:32.586Z,-0.56
2023-02-08T05:02:00.438Z,-0.62
2023-02-08T05:04:28.285Z,-0.68
2023-02-08T05:06:55.921Z,-0.74
2023-02-08T05:09:23.486Z,-0.71
2023-02-08T05:11:51.203Z,-0.79
2023-02-08T05:14:20.222Z,-0.89
2023-02-08T05:16:47.826Z,-0.84
2023-02-08T05:19:15.408Z,-0.71
2023-02-08T05:21:43.063Z,-0.74
2023-02-08T05:24:12.681Z,-0.74
2023-02-08T05:26:40.723Z,-0.84
2023-02-08T05:29:09.179Z,-0.85
2023-02-08T05:31:38.365Z,-0.97
2023-02-08T05:34:06.048Z,-0.94
2023-02-08T05:36:33.694Z,-0.89
2023-02-08T05:39:01.324Z,-0.90
2023-02-08T05:41:28.940Z,-0.85
2023-02-08T05:43:56.564Z,-0.84
2023-02-08T05:46:25.437Z,-0.79
2023-02-08T05:48:54.410Z,-0.86
2023-02-08T05:51:22.182Z,-0.81
2023-02-08T05:53:49.858Z,-0.88
2023-02-08T05:56:17.517Z,-0.86
2023-02-08T05:58:45.323Z,-0.80
2023-02-08T06:01:14.148Z,-1.02
2023-02-08T06:03:42.385Z,-1.15
2023-02-08T06:06:11.758Z,-1.18
2023-02-08T06:08:39.918Z,-1.07
2023-02-08T06:11:07.873Z,-1.07
2023-02-08T06:13:36.292Z,-1.09
2023-02-08T06:16:03.984Z,-1.11
2023-02-08T06:18:31.692Z,-1.22
2023-02-08T06:20:59.366Z,-1.18
2023-02-08T06:23:28.651Z,-1.15
2023-02-08T06:25:56.286Z,-1.13
2023-02-08T06:28:24.096Z,-1.09
2023-02-08T06:30:54.299Z,-1.21
2023-02-08T06:33:21.972Z,-1.24
2023-02-08T06:35:53.064Z,-1.16
2023-02-08T06:38:21.474Z,-1.24
2023-02-08T06:40:51.171Z,-1.17
2023-02-08T06:43:19.359Z,-1.24
2023-02-08T06:45:47.754Z,-1.26
2023-02-08T06:48:16.027Z,-1.29
2023-02-08T06:50:44.041Z,-1.35
2023-02-08T06:53:12.052Z,-1.43
2023-02-08T06:55:39.748Z,-1.36
2023-02-08T06:58:08.675Z,-1.26
2023-02-08T07:00:38.548Z,-1.23
2023-02-08T07:03:06.349Z,-1.21
2023-02-08T07:05:38.333Z,-1.36
2023-02-08T07:08:06.590Z,-1.26
2023-02-08T07:10:34.782Z,-1.23
2023-02-08T07:13:03.438Z,-1.19
2023-02-08T07:15:33.494Z,-1.14
2023-02-08T07:18:02.162Z,-1.12
2023-02-08T07:20:29.966Z,-1.23
2023-02-08T07:22:57.653Z,-1.27
2023-02-08T07:25:26.344Z,-1.20
2023-02-08T07:27:54.033Z,-1.20
2023-02-08T07:30:21.773Z,-1.11
2023-02-08T07:32:50.737Z,-1.11
2023-02-08T07:35:19.373Z,-1.08
2023-02-08T07:37:47.040Z,-1.05
2023-02-08T07:40:14.719Z,-1.06
2023-02-08T07:42:42.354Z,-1.17
2023-02-08T07:45:10.652Z,-1.22
2023-02-08T07:47:38.298Z,-1.14
2023-02-08T07:50:07.870Z,-1.15
2023-02-08T07:52:35.514Z,-1.06
2023-02-08T07:55:03.165Z,-1.02
2023-02-08T07:57:30.805Z,-1.05
2023-02-08T07:59:58.524Z,-0.96
2023-02-08T08:02:28.792Z,-0.90
2023-02-08T08:04:56.507Z,-1.03
2023-02-08T08:07:25.544Z,-1.06
2023-02-08T08:09:53.344Z,-1.13
2023-02-08T08:12:21.473Z,-0.91
2023-02-08T08:14:49.462Z,-0.92
2023-02-08T08:17:17.476Z,-0.88
2023-02-08T08:19:46.929Z,-0.86
2023-02-08T08:22:14.606Z,-0.76
2023-02-08T08:24:43.686Z,-0.69
2023-02-08T08:27:11.334Z,-0.64
2023-02-08T08:29:40.684Z,-0.60
2023-02-08T08:32:10.316Z,-0.54
2023-02-08T08:34:39.407Z,-0.50
2023-02-08T08:37:07.186Z,-0.53
2023-02-08T08:39:35.557Z,-0.37
2023-02-08T08:42:05.098Z,-0.20
2023-02-08T08:44:32.899Z,-0.10
2023-02-08T08:47:01.660Z,-0.07
2023-02-08T08:49:30.174Z,-0.13
2023-02-08T08:51:58.259Z,-0.02
2023-02-08T08:54:26.093Z,0.11
2023-02-08T08:56:53.936Z,0.02
2023-02-08T08:59:23.022Z,0.18
2023-02-08T09:01:50.688Z,0.30
2023-02-08T09:04:18.396Z,0.38
2023-02-08T09:06:45.994Z,0.42
2023-02-08T09:09:13.582Z,0.48
2023-02-08T09:11:41.600Z,0.51
2023-02-08T09:14:09.614Z,0.65
2023-02-08T09:16:39.086Z,0.73
2023-02-08T09:19:08.481Z,0.87
2023-02-08T09:21:36.465Z,0.93
2023-02-08T09:24:04.475Z,1.02
2023-02-08T09:26:32.232Z,1.07
2023-02-08T09:29:00.818Z,1.13
2023-02-08T09:31:31.737Z,1.23
2023-02-08T09:34:01.927Z,1.35
2023-02-08T09:36:32.807Z,1.22
2023-02-08T09:39:03.129Z,1.25
2023-02-08T09:41:46.746Z,1.32
2023-02-08T09:44:22.189Z,1.47
2023-02-08T09:46:58.290Z,1.49
2023-02-08T09:49:32.448Z,1.49
2023-02-08T09:52:04.072Z,1.38
2023-02-08T09:54:36.189Z,1.53
2023-02-08T09:57:08.075Z,1.45
2023-02-08T09:59:37.235Z,1.49
2023-02-08T10:02:19.253Z,1.64
2023-02-08T10:04:58.269Z,1.73
2023-02-08T10:07:27.344Z,1.75
2023-02-08T10:09:57.455Z,1.79
2023-02-08T10:12:38.847Z,1.83
2023-02-08T10:15:26.664Z,1.85
2023-02-08T10:18:08.629Z,1.88
2023-02-08T10:20:58.697Z,1.98
2023-02-08T10:23:45.097Z,2.08
2023-02-08T10:26:26.263Z,2.14
2023-02-08T10:29:06.861Z,2.22
2023-02-08T10:31:50.225Z,2.20
2023-02-08T10:34:31.358Z,2.11
2023-02-08T10:37:04.612Z,2.22
2023-02-08T10:39:35.725Z,2.31
2023-02-08T10:42:05.491Z,2.29
2023-02-08T10:44:39.686Z,2.35
2023-02-08T10:47:15.474Z,2.46
2023-02-08T10:49:50.446Z,2.53
2023-02-08T10:52:20.048Z,2.58
2023-02-08T10:54:47.645Z,2.61
2023-02-08T10:57:19.216Z,2.56
2023-02-08T10:59:50.243Z,2.59
2023-02-08T11:02:23.768Z,2.60
2023-02-08T11:05:02.989Z,2.50
2023-02-08T11:07:36.223Z,2.55
2023-02-08T11:10:21.832Z,2.67
2023-02-08T11:12:56.369Z,2.66
2023-02-08T11:15:26.377Z,2.64
2023-02-08T11:17:58.478Z,2.60
2023-02-08T11:20:32.302Z,2.61
2023-02-08T11:23:03.830Z,2.58
2023-02-08T11:25:36.009Z,2.55
2023-02-08T11:28:05.591Z,2.66
2023-02-08T11:30:34.304Z,2.71
2023-02-08T11:33:23.275Z,2.68
2023-02-08T11:35:56.030Z,2.66
2023-02-08T11:38:30.607Z,2.66
2023-02-08T11:41:03.177Z,2.66
2023-02-08T11:43:33.808Z,2.74
2023-02-08T11:46:04.181Z,2.77
2023-02-08T11:48:42.021Z,2.80
2023-02-08T11:51:13.277Z,2.75
2023-02-08T11:53:47.857Z,2.79
2023-02-08T11:56:19.296Z,2.77
2023-02-08T11:59:03.610Z,2.81
2023-02-08T12:01:33.137Z,2.77
2023-02-08T12:04:03.949Z,2.78
2023-02-08T12:06:50.607Z,2.74
2023-02-08T12:09:33.014Z,2.82
2023-02-08T12:12:13.685Z,2.89
2023-02-08T12:14:54.560Z,2.97
2023-02-08T12:17:43.231Z,3.15
2023-02-08T12:20:37.040Z,3.32
2023-02-08T12:23:21.266Z,3.50
2023-02-08T12:25:57.563Z,3.69
2023-02-08T12:28:34.840Z,3.81
2023-02-08T12:31:10.398Z,3.96
2023-02-08T12:33:51.317Z,4.12
2023-02-08T12:36:33.544Z,4.30
2023-02-08T12:39:28.048Z,4.50
2023-02-08T12:42:15.532Z,4.68
2023-02-08T12:45:01.826Z,4.87
2023-02-08T12:47:51.718Z,4.86
2023-02-08T12:50:32.274Z,4.98
2023-02-08T12:53:04.263Z,5.03
2023-02-08T12:55:36.405Z,4.99
2023-02-08T12:58:22.257Z,5.23
2023-02-08T13:00:53.215Z,5.31
2023-02-08T13:03:32.115Z,5.35
2023-02-08T13:06:02.533Z,5.43
2023-02-08T13:08:34.820Z,5.58
2023-02-08T13:11:19.050Z,5.76
2023-02-08T13:13:58.822Z,5.81
2023-02-08T13:16:34.028Z,5.95
2023-02-08T13:19:19.365Z,5.98
2023-02-08T13:21:47.343Z,5.95
2023-02-08T13:24:23.656Z,5.99
2023-02-08T13:26:51.416Z,6.08
2023-02-08T13:29:23.220Z,6.04
2023-02-08T13:31:54.815Z,6.07
2023-02-08T13:34:30.364Z,5.83
2023-02-08T13:37:03.638Z,5.74
2023-02-08T13:39:37.714Z,5.63
2023-02-08T13:42:08.396Z,5.43
2023-02-08T13:44:39.400Z,5.34
2023-02-08T13:47:08.771Z,5.24
2023-02-08T13:49:44.683Z,5.10
2023-02-08T13:52:50.378Z,5.04
2023-02-08T13:55:51.484Z,4.96
2023-02-08T13:59:04.231Z,4.89
2023-02-08T14:01:37.405Z,4.83
2023-02-08T14:04:34.622Z,4.74
2023-02-08T14:07:08.457Z,4.69
2023-02-08T14:09:48.733Z,4.67
2023-02-08T14:12:26.685Z,4.60
2023-02-08T14:15:27.705Z,4.48
2023-02-08T14:17:59.934Z,4.33
2023-02-08T14:20:34.945Z,4.39
2023-02-08T14:23:10.708Z,4.31
2023-02-08T14:25:44.431Z,4.33
2023-02-08T14:28:27.494Z,4.32
2023-02-08T14:30:58.921Z,4.30
2023-02-08T14:33:38.392Z,4.30
2023-02-08T14:36:10.897Z,4.26
2023-02-08T14:38:55.385Z,4.24
2023-02-08T14:41:54.295Z,4.25
2023-02-08T14:44:56.955Z,4.11
2023-02-08T14:47:54.391Z,4.07
2023-02-08T14:50:28.088Z,4.15
2023-02-08T14:53:07.752Z,4.06
2023-02-08T14:55:44.274Z,4.11
2023-02-08T14:58:16.176Z,4.12
2023-02-08T15:00:45.623Z,4.05
2023-02-08T15:03:17.156Z,4.04
2023-02-08T15:06:13.190Z,3.97
2023-02-08T15:08:41.356Z,3.97
2023-02-08T15:11:21.857Z,4.03
2023-02-08T15:13:51.149Z,3.95
2023-02-08T15:16:20.337Z,3.98
2023-02-08T15:18:52.052Z,4.00
2023-02-08T15:21:25.512Z,3.91
2023-02-08T15:24:01.228Z,3.86
2023-02-08T15:26:29.364Z,3.87
2023-02-08T15:29:00.513Z,3.89
2023-02-08T15:31:32.829Z,3.89
2023-02-08T15:34:02.964Z,3.86
2023-02-08T15:36:34.097Z,3.88
2023-02-08T15:39:04.503Z,3.79
2023-02-08T15:41:34.759Z,3.81
2023-02-08T15:44:13.094Z,3.83
2023-02-08T15:46:43.750Z,3.85
2023-02-08T15:49:15.573Z,3.86
2023-02-08T15:51:47.562Z,3.84
2023-02-08T15:54:19.119Z,3.84
2023-02-08T15:56:52.282Z,3.77
2023-02-08T15:59:26.611Z,3.71
2023-02-08T16:01:56.485Z,3.72
2023-02-08T16:04:25.196Z,3.75
2023-02-08T16:06:59.107Z,3.77
2023-02-08T16:09:29.732Z,3.78
2023-02-08T16:12:01.767Z,3.73
2023-02-08T16:14:35.259Z,3.75
2023-02-08T16:17:32.139Z,3.74
2023-02-08T16:19:59.793Z,3.66
2023-02-08T16:22:31.997Z,3.62
2023-02-08T16:25:25.264Z,3.49
2023-02-08T16:27:53.060Z,3.45
2023-02-08T16:30:22.407Z,3.42
2023-02-08T16:32:51.672Z,3.38
2023-02-08T16:35:24.577Z,3.39
2023-02-08T16:38:02.512Z,3.29
2023-02-08T16:40:48.947Z,3.30
2023-02-08T16:43:18.062Z,3.31
2023-02-08T16:45:46.522Z,3.32
2023-02-08T16:48:32.310Z,3.27
2023-02-08T16:51:00.373Z,3.15
2023-02-08T16:53:41.479Z,3.15
2023-02-08T16:56:11.345Z,3.11
2023-02-08T16:58:40.721Z,3.20
2023-02-08T17:01:12.567Z,3.16
2023-02-08T17:03:40.514Z,3.12
2023-02-08T17:06:08.729Z,3.08
2023-02-08T17:08:39.847Z,3.08
2023-02-08T17:11:10.406Z,2.91
2023-02-08T17:13:38.286Z,2.88
2023-02-08T17:16:06.370Z,2.66
2023-02-08T17:18:35.049Z,2.63
2023-02-08T17:21:02.985Z,2.65
2023-02-08T17:23:31.382Z,2.67
2023-02-08T17:26:00.341Z,2.56
2023-02-08T17:28:28.352Z,2.55
2023-02-08T17:30:56.603Z,2.49
2023-02-08T17:33:26.058Z,2.50
2023-02-08T17:35:54.705Z,2.43
2023-02-08T17:38:22.447Z,2.31
2023-02-08T17:40:50.339Z,2.32
2023-02-08T17:43:23.124Z,2.29
2023-02-08T17:45:52.233Z,2.22
2023-02-08T17:48:19.925Z,2.30
2023-02-08T17:50:50.974Z,2.21
2023-02-08T17:53:19.284Z,2.24
2023-02-08T17:55:47.581Z,2.23
2023-02-08T17:58:15.445Z,2.27
2023-02-08T18:00:45.111Z,2.20
2023-02-08T18:03:17.128Z,1.99
2023-02-08T18:05:45.187Z,1.97
2023-02-08T18:08:15.375Z,1.92
2023-02-08T18:10:43.396Z,1.93
2023-02-08T18:13:13.684Z,1.83
2023-02-08T18:15:41.703Z,1.85
2023-02-08T18:18:13.166Z,1.83
2023-02-08T18:20:44.497Z,1.75
2023-02-08T18:23:12.178Z,1.80
2023-02-08T18:25:42.637Z,1.79
2023-02-08T18:28:14.554Z,1.58
2023-02-08T18:30:43.364Z,1.57
2023-02-08T18:33:13.570Z,1.46
2023-02-08T18:35:41.732Z,1.44
2023-02-08T18:38:09.562Z,1.44
2023-02-08T18:40:37.223Z,1.41
2023-02-08T18:43:08.206Z,1.33
2023-02-08T18:45:35.872Z,1.41
2023-02-08T18:48:03.578Z,1.41
2023-02-08T18:50:32.943Z,1.52
2023-02-08T18:53:00.645Z,1.52
2023-02-08T18:55:28.426Z,1.57
2023-02-08T18:57:56.161Z,1.61
2023-02-08T19:00:24.071Z,1.63
2023-02-08T19:02:52.201Z,1.67
2023-02-08T19:05:20.186Z,1.64
2023-02-08T19:07:49.716Z,1.62
2023-02-08T19:10:18.127Z,1.41
2023-02-08T19:12:46.271Z,1.44
2023-02-08T19:15:15.052Z,1.46
2023-02-08T19:17:43.642Z,1.49
2023-02-08T19:20:12.221Z,1.55
2023-02-08T19:22:40.200Z,1.59
2023-02-08T19:25:09.461Z,1.63
2023-02-08T19:27:39.397Z,1.73
2023-02-08T19:30:10.152Z,1.86
2023-02-08T19:32:37.938Z,2.00
2023-02-08T19:35:05.721Z,2.05
2023-02-08T19:37:35.729Z,2.00
2023-02-08T19:40:04.095Z,2.07
2023-02-08T19:42:33.117Z,2.12
2023-02-08T19:45:00.958Z,2.19
2023-02-08T19:47:48.499Z,2.20
2023-02-08T19:50:16.773Z,2.13
2023-02-08T19:52:44.461Z,1.95
2023-02-08T19:55:12.208Z,1.81
2023-02-08T19:57:41.330Z,1.67
2023-02-08T20:00:22.511Z,1.62
2023-02-08T20:02:54.204Z,1.61
2023-02-08T20:05:22.025Z,1.58
2023-02-08T20:07:49.864Z,1.50
2023-02-08T20:10:17.682Z,1.59
2023-02-08T20:12:46.724Z,1.57
2023-02-08T20:15:14.401Z,1.64
2023-02-08T20:17:42.489Z,1.66
2023-02-08T20:20:11.288Z,1.46
2023-02-08T20:22:38.932Z,1.41
2023-02-08T20:25:07.353Z,1.40
2023-02-08T20:27:35.147Z,1.38
2023-02-08T20:30:04.538Z,1.29
2023-02-08T20:32:32.233Z,1.32
2023-02-08T20:35:00.171Z,1.33
2023-02-08T20:37:27.881Z,1.29
2023-02-08T20:39:55.630Z,1.35
2023-02-08T20:42:23.390Z,1.38
2023-02-08T20:44:51.673Z,1.41
2023-02-08T20:47:21.796Z,1.42
2023-02-08T20:49:49.988Z,1.50
2023-02-08T20:52:19.262Z,1.43
2023-02-08T20:54:47.848Z,1.44
2023-02-08T20:57:19.305Z,1.46
2023-02-08T20:59:50.526Z,1.43
2023-02-08T21:02:21.663Z,1.40
2023-02-08T21:04:49.509Z,1.40
2023-02-08T21:07:17.635Z,1.43
2023-02-08T21:09:48.065Z,1.44
2023-02-08T21:12:16.033Z,1.49
2023-02-08T21:14:44.592Z,1.50
2023-02-08T21:17:12.407Z,1.47
2023-02-08T21:19:41.647Z,1.39
2023-02-08T21:22:10.859Z,1.23
2023-02-08T21:24:38.955Z,1.12
2023-02-08T21:27:07.380Z,1.08
2023-02-08T21:29:35.051Z,1.09
2023-02-08T21:32:03.434Z,1.04
2023-02-08T21:34:31.603Z,1.03
2023-02-08T21:37:00.650Z,1.06
2023-02-08T21:39:29.897Z,1.06
2023-02-08T21:41:59.181Z,1.03
2023-02-08T21:44:29.820Z,1.07
2023-02-08T21:46:57.689Z,1.00
2023-02-08T21:49:42.893Z,0.98
2023-02-08T21:52:30.531Z,0.99
2023-02-08T21:55:00.621Z,1.08
2023-02-08T21:57:32.875Z,1.14
2023-02-08T22:00:02.041Z,1.16
2023-02-08T22:02:31.952Z,1.09
2023-02-08T22:05:21.988Z,1.06
2023-02-08T22:07:53.796Z,1.10
2023-02-08T22:10:24.103Z,1.11
2023-02-08T22:12:54.458Z,1.08
2023-02-08T22:15:24.697Z,1.13
2023-02-08T22:17:54.086Z,1.10
2023-02-08T22:20:22.533Z,0.95
2023-02-08T22:22:55.104Z,0.92
2023-02-08T22:25:23.683Z,0.89
2023-02-08T22:27:51.524Z,0.88
2023-02-08T22:30:20.192Z,0.90
2023-02-08T22:32:49.679Z,0.88
2023-02-08T22:35:19.134Z,0.90
2023-02-08T22:37:47.498Z,0.92
2023-02-08T22:40:16.808Z,0.86
2023-02-08T22:42:44.519Z,0.83
2023-02-08T22:45:12.500Z,0.85
2023-02-08T22:47:40.498Z,0.88
2023-02-08T22:50:11.854Z,0.94
2023-02-08T22:52:39.516Z,0.98
2023-02-08T22:55:10.049Z,0.91
2023-02-08T22:57:39.207Z,0.92
2023-02-08T23:00:08.380Z,0.87
2023-02-08T23:02:37.286Z,0.83
2023-02-08T23:05:06.773Z,0.95
2023-02-08T23:07:34.526Z,0.98
2023-02-08T23:10:03.662Z,0.96
2023-02-08T23:12:31.957Z,0.77
2023-02-08T23:15:01.593Z,0.78
2023-02-08T23:17:29.277Z,0.77
2023-02-08T23:19:57.278Z,0.74
2023-02-08T23:22:26.371Z,0.77
2023-02-08T23:24:55.338Z,0.80
2023-02-08T23:27:23.031Z,0.79
2023-02-08T23:29:50.758Z,0.79
2023-02-08T23:32:19.803Z,0.77
2023-02-08T23:34:47.539Z,0.71
2023-02-08T23:37:15.244Z,0.68
2023-02-08T23:39:43.321Z,0.51
2023-02-08T23:42:25.189Z,0.23
2023-02-08T23:44:53.204Z,0.10
2023-02-08T23:47:23.161Z,0.15
2023-02-08T23:49:51.075Z,0.31
2023-02-08T23:52:19.459Z,0.28
2023-02-08T23:54:47.517Z,0.34
2023-02-08T23:57:15.758Z,0.39
2023-02-08T23:59:43.717Z,0.39
